sensor_id;sensor_type;location;lat;lon;timestamp;temperature;humidity
4697;DHT22;2362;50.780;0.292;2022-10-16T00:01:13;14.60;99.90
4697;DHT22;2362;50.780;0.292;2022-10-16T00:03:40;14.70;99.90
4697;DHT22;2362;50.780;0.292;2022-10-16T00:06:06;14.70;99.90
4697;DHT22;2362;50.780;0.292;2022-10-16T00:08:33;14.60;99.90
4697;DHT22;2362;50.780;0.292;2022-10-16T00:11:11;14.40;99.90
4697;DHT22;2362;50.780;0.292;2022-10-16T00:13:39;14.30;99.90
4697;DHT22;2362;50.780;0.292;2022-10-16T00:16:05;14.20;99.90
4697;DHT22;2362;50.780;0.292;2022-10-16T00:18:31;14.20;99.90
4697;DHT22;2362;50.780;0.292;2022-10-16T00:23:34;14.20;99.90
4697;DHT22;2362;50.780;0.292;2022-10-16T00:26:26;14.20;99.90
4697;DHT22;2362;50.780;0.292;2022-10-16T00:28:52;14.10;99.90
4697;DHT22;2362;50.780;0.292;2022-10-16T00:31:20;14.10;99.90
4697;DHT22;2362;50.780;0.292;2022-10-16T00:33:47;14.20;99.90
4697;DHT22;2362;50.780;0.292;2022-10-16T00:36:15;14.30;99.90
4697;DHT22;2362;50.780;0.292;2022-10-16T00:38:41;14.40;99.90
4697;DHT22;2362;50.780;0.292;2022-10-16T00:41:09;14.40;99.90
4697;DHT22;2362;50.780;0.292;2022-10-16T00:46:11;14.30;99.90
4697;DHT22;2362;50.780;0.292;2022-10-16T00:48:38;14.30;99.90
4697;DHT22;2362;50.780;0.292;2022-10-16T00:51:05;14.40;99.90
4697;DHT22;2362;50.780;0.292;2022-10-16T00:53:32;14.40;99.90
4697;DHT22;2362;50.780;0.292;2022-10-16T00:55:58;14.50;99.90
4697;DHT22;2362;50.780;0.292;2022-10-16T00:58:49;14.50;99.90
4697;DHT22;2362;50.780;0.292;2022-10-16T01:01:39;14.60;99.90
4697;DHT22;2362;50.780;0.292;2022-10-16T01:04:36;14.70;99.90
4697;DHT22;2362;50.780;0.292;2022-10-16T01:08:13;14.60;99.90
4697;DHT22;2362;50.780;0.292;2022-10-16T01:10:45;14.30;99.90
4697;DHT22;2362;50.780;0.292;2022-10-16T01:13:27;14.10;99.90
4697;DHT22;2362;50.780;0.292;2022-10-16T01:18:48;13.60;99.90
4697;DHT22;2362;50.780;0.292;2022-10-16T01:21:24;13.50;99.90
4697;DHT22;2362;50.780;0.292;2022-10-16T01:29:44;13.30;99.90
4697;DHT22;2362;50.780;0.292;2022-10-16T01:32:28;13.30;99.90
4697;DHT22;2362;50.780;0.292;2022-10-16T01:35:22;13.30;99.90
4697;DHT22;2362;50.780;0.292;2022-10-16T01:40:19;13.50;99.90
4697;DHT22;2362;50.780;0.292;2022-10-16T01:42:53;13.50;99.90
4697;DHT22;2362;50.780;0.292;2022-10-16T01:45:21;13.50;99.90
4697;DHT22;2362;50.780;0.292;2022-10-16T01:47:48;13.50;99.90
4697;DHT22;2362;50.780;0.292;2022-10-16T01:50:16;13.40;99.90
4697;DHT22;2362;50.780;0.292;2022-10-16T01:52:46;13.40;99.90
4697;DHT22;2362;50.780;0.292;2022-10-16T01:55:19;13.30;99.90
4697;DHT22;2362;50.780;0.292;2022-10-16T01:57:48;13.30;99.90
4697;DHT22;2362;50.780;0.292;2022-10-16T02:00:17;13.30;99.90
4697;DHT22;2362;50.780;0.292;2022-10-16T02:02:47;13.20;99.90
4697;DHT22;2362;50.780;0.292;2022-10-16T02:05:28;13.10;99.90
4697;DHT22;2362;50.780;0.292;2022-10-16T02:07:56;13.10;99.90
4697;DHT22;2362;50.780;0.292;2022-10-16T02:10:23;13.10;99.90
4697;DHT22;2362;50.780;0.292;2022-10-16T02:12:59;13.00;99.90
4697;DHT22;2362;50.780;0.292;2022-10-16T02:15:26;12.90;99.90
4697;DHT22;2362;50.780;0.292;2022-10-16T02:17:52;13.00;99.90
4697;DHT22;2362;50.780;0.292;2022-10-16T02:20:20;12.90;99.90
4697;DHT22;2362;50.780;0.292;2022-10-16T02:22:49;13.00;99.90
4697;DHT22;2362;50.780;0.292;2022-10-16T02:25:37;13.10;99.90
4697;DHT22;2362;50.780;0.292;2022-10-16T02:28:34;13.10;99.90
4697;DHT22;2362;50.780;0.292;2022-10-16T02:31:07;13.10;99.90
4697;DHT22;2362;50.780;0.292;2022-10-16T02:33:35;13.10;99.90
4697;DHT22;2362;50.780;0.292;2022-10-16T02:36:02;13.10;99.90
4697;DHT22;2362;50.780;0.292;2022-10-16T02:38:29;13.20;99.90
4697;DHT22;2362;50.780;0.292;2022-10-16T02:40:56;13.20;99.90
4697;DHT22;2362;50.780;0.292;2022-10-16T02:43:21;13.20;99.90
4697;DHT22;2362;50.780;0.292;2022-10-16T02:45:47;13.20;99.90
4697;DHT22;2362;50.780;0.292;2022-10-16T02:48:13;13.30;99.90
4697;DHT22;2362;50.780;0.292;2022-10-16T02:50:38;13.30;99.90
4697;DHT22;2362;50.780;0.292;2022-10-16T02:53:04;13.30;99.90
4697;DHT22;2362;50.780;0.292;2022-10-16T02:55:30;13.30;99.90
4697;DHT22;2362;50.780;0.292;2022-10-16T02:57:55;13.40;99.90
4697;DHT22;2362;50.780;0.292;2022-10-16T03:00:21;13.40;99.90
4697;DHT22;2362;50.780;0.292;2022-10-16T03:02:47;13.40;99.90
4697;DHT22;2362;50.780;0.292;2022-10-16T03:05:13;13.30;99.90
4697;DHT22;2362;50.780;0.292;2022-10-16T03:07:39;13.30;99.90
4697;DHT22;2362;50.780;0.292;2022-10-16T03:10:06;13.30;99.90
4697;DHT22;2362;50.780;0.292;2022-10-16T03:12:32;13.40;99.90
4697;DHT22;2362;50.780;0.292;2022-10-16T03:14:58;13.40;99.90
4697;DHT22;2362;50.780;0.292;2022-10-16T03:17:24;13.60;99.90
4697;DHT22;2362;50.780;0.292;2022-10-16T03:19:51;13.50;99.90
4697;DHT22;2362;50.780;0.292;2022-10-16T03:22:16;13.60;99.90
4697;DHT22;2362;50.780;0.292;2022-10-16T03:24:42;13.70;99.90
4697;DHT22;2362;50.780;0.292;2022-10-16T03:27:08;13.80;99.90
4697;DHT22;2362;50.780;0.292;2022-10-16T03:29:33;13.60;99.90
4697;DHT22;2362;50.780;0.292;2022-10-16T03:32:00;13.30;99.90
4697;DHT22;2362;50.780;0.292;2022-10-16T03:34:25;13.10;99.90
4697;DHT22;2362;50.780;0.292;2022-10-16T03:36:52;12.90;99.90
4697;DHT22;2362;50.780;0.292;2022-10-16T03:39:18;12.80;99.90
4697;DHT22;2362;50.780;0.292;2022-10-16T03:41:44;12.70;99.90
4697;DHT22;2362;50.780;0.292;2022-10-16T03:44:10;12.60;99.90
4697;DHT22;2362;50.780;0.292;2022-10-16T03:50:17;12.60;99.90
4697;DHT22;2362;50.780;0.292;2022-10-16T03:52:43;12.70;99.90
4697;DHT22;2362;50.780;0.292;2022-10-16T03:55:09;12.80;99.90
4697;DHT22;2362;50.780;0.292;2022-10-16T03:57:34;12.80;99.90
4697;DHT22;2362;50.780;0.292;2022-10-16T04:00:00;12.90;99.90
4697;DHT22;2362;50.780;0.292;2022-10-16T04:02:26;13.10;99.90
4697;DHT22;2362;50.780;0.292;2022-10-16T04:04:52;13.20;99.90
4697;DHT22;2362;50.780;0.292;2022-10-16T04:07:18;13.20;99.90
4697;DHT22;2362;50.780;0.292;2022-10-16T04:09:43;13.10;99.90
4697;DHT22;2362;50.780;0.292;2022-10-16T04:12:13;12.90;99.90
4697;DHT22;2362;50.780;0.292;2022-10-16T04:14:38;12.90;99.90
4697;DHT22;2362;50.780;0.292;2022-10-16T04:17:04;12.80;99.90
4697;DHT22;2362;50.780;0.292;2022-10-16T04:19:30;12.80;99.90
4697;DHT22;2362;50.780;0.292;2022-10-16T04:21:55;12.80;99.90
4697;DHT22;2362;50.780;0.292;2022-10-16T04:24:21;12.90;99.90
4697;DHT22;2362;50.780;0.292;2022-10-16T04:26:46;13.10;99.90
4697;DHT22;2362;50.780;0.292;2022-10-16T04:29:12;13.10;99.90
4697;DHT22;2362;50.780;0.292;2022-10-16T04:31:38;13.10;99.90
4697;DHT22;2362;50.780;0.292;2022-10-16T04:34:03;13.00;99.90
4697;DHT22;2362;50.780;0.292;2022-10-16T04:36:29;13.10;99.90
4697;DHT22;2362;50.780;0.292;2022-10-16T04:38:55;13.10;99.90
4697;DHT22;2362;50.780;0.292;2022-10-16T04:41:21;13.10;99.90
4697;DHT22;2362;50.780;0.292;2022-10-16T04:44:11;13.00;99.90
4697;DHT22;2362;50.780;0.292;2022-10-16T04:47:03;13.00;99.90
4697;DHT22;2362;50.780;0.292;2022-10-16T04:49:32;13.10;99.90
4697;DHT22;2362;50.780;0.292;2022-10-16T04:51:57;13.10;99.90
4697;DHT22;2362;50.780;0.292;2022-10-16T04:54:23;13.00;99.90
4697;DHT22;2362;50.780;0.292;2022-10-16T04:56:49;13.00;99.90
4697;DHT22;2362;50.780;0.292;2022-10-16T04:59:17;13.10;99.90
4697;DHT22;2362;50.780;0.292;2022-10-16T05:01:43;13.00;99.90
4697;DHT22;2362;50.780;0.292;2022-10-16T05:04:09;13.10;99.90
4697;DHT22;2362;50.780;0.292;2022-10-16T05:06:35;13.10;99.90
4697;DHT22;2362;50.780;0.292;2022-10-16T05:09:01;13.00;99.90
4697;DHT22;2362;50.780;0.292;2022-10-16T05:11:27;13.00;99.90
4697;DHT22;2362;50.780;0.292;2022-10-16T05:14:18;13.00;99.90
4697;DHT22;2362;50.780;0.292;2022-10-16T05:17:09;12.90;99.90
4697;DHT22;2362;50.780;0.292;2022-10-16T05:19:34;12.80;99.90
4697;DHT22;2362;50.780;0.292;2022-10-16T05:22:00;12.80;99.90
4697;DHT22;2362;50.780;0.292;2022-10-16T05:24:26;12.90;99.90
4697;DHT22;2362;50.780;0.292;2022-10-16T05:26:52;13.00;99.90
4697;DHT22;2362;50.780;0.292;2022-10-16T05:29:17;13.10;99.90
4697;DHT22;2362;50.780;0.292;2022-10-16T05:31:43;13.20;99.90
4697;DHT22;2362;50.780;0.292;2022-10-16T05:34:09;13.20;99.90
4697;DHT22;2362;50.780;0.292;2022-10-16T05:36:35;13.20;99.90
4697;DHT22;2362;50.780;0.292;2022-10-16T05:39:00;13.20;99.90
4697;DHT22;2362;50.780;0.292;2022-10-16T05:41:26;13.20;99.90
4697;DHT22;2362;50.780;0.292;2022-10-16T05:43:52;13.10;99.90
4697;DHT22;2362;50.780;0.292;2022-10-16T05:46:18;13.20;99.90
4697;DHT22;2362;50.780;0.292;2022-10-16T05:48:44;13.20;99.90
4697;DHT22;2362;50.780;0.292;2022-10-16T05:51:11;13.10;99.90
4697;DHT22;2362;50.780;0.292;2022-10-16T05:53:38;13.00;99.90
4697;DHT22;2362;50.780;0.292;2022-10-16T05:56:06;13.10;99.90
4697;DHT22;2362;50.780;0.292;2022-10-16T05:58:34;13.00;99.90
4697;DHT22;2362;50.780;0.292;2022-10-16T06:01:07;13.00;99.90
4697;DHT22;2362;50.780;0.292;2022-10-16T06:03:34;12.90;99.90
4697;DHT22;2362;50.780;0.292;2022-10-16T06:06:16;13.00;99.90
4697;DHT22;2362;50.780;0.292;2022-10-16T06:08:44;13.00;99.90
4697;DHT22;2362;50.780;0.292;2022-10-16T06:11:16;13.00;99.90
4697;DHT22;2362;50.780;0.292;2022-10-16T06:13:42;13.00;99.90
4697;DHT22;2362;50.780;0.292;2022-10-16T06:16:12;12.90;99.90
4697;DHT22;2362;50.780;0.292;2022-10-16T06:18:38;12.90;99.90
4697;DHT22;2362;50.780;0.292;2022-10-16T06:21:10;12.90;99.90
4697;DHT22;2362;50.780;0.292;2022-10-16T06:23:36;12.90;99.90
4697;DHT22;2362;50.780;0.292;2022-10-16T06:26:06;12.90;99.90
4697;DHT22;2362;50.780;0.292;2022-10-16T06:28:32;12.90;99.90
4697;DHT22;2362;50.780;0.292;2022-10-16T06:31:04;12.90;99.90
4697;DHT22;2362;50.780;0.292;2022-10-16T06:33:30;12.70;99.90
4697;DHT22;2362;50.780;0.292;2022-10-16T06:38:32;12.60;99.90
4697;DHT22;2362;50.780;0.292;2022-10-16T06:40:58;12.60;99.90
4697;DHT22;2362;50.780;0.292;2022-10-16T06:43:24;12.60;99.90
4697;DHT22;2362;50.780;0.292;2022-10-16T06:45:55;12.70;99.90
4697;DHT22;2362;50.780;0.292;2022-10-16T06:48:45;12.90;99.90
4697;DHT22;2362;50.780;0.292;2022-10-16T06:51:37;13.10;99.90
4697;DHT22;2362;50.780;0.292;2022-10-16T06:54:06;13.30;99.90
4697;DHT22;2362;50.780;0.292;2022-10-16T06:56:33;13.30;99.90
4697;DHT22;2362;50.780;0.292;2022-10-16T06:58:59;13.20;99.90
4697;DHT22;2362;50.780;0.292;2022-10-16T07:01:26;13.20;99.90
4697;DHT22;2362;50.780;0.292;2022-10-16T07:03:52;13.10;99.90
4697;DHT22;2362;50.780;0.292;2022-10-16T07:06:20;13.10;99.90
4697;DHT22;2362;50.780;0.292;2022-10-16T07:08:46;13.10;99.90
4697;DHT22;2362;50.780;0.292;2022-10-16T07:11:14;13.10;99.90
4697;DHT22;2362;50.780;0.292;2022-10-16T07:13:42;13.10;99.90
4697;DHT22;2362;50.780;0.292;2022-10-16T07:18:35;13.20;99.90
4697;DHT22;2362;50.780;0.292;2022-10-16T07:21:09;13.20;99.90
4697;DHT22;2362;50.780;0.292;2022-10-16T07:23:34;13.20;99.90
4697;DHT22;2362;50.780;0.292;2022-10-16T07:26:27;13.30;99.90
4697;DHT22;2362;50.780;0.292;2022-10-16T07:28:53;13.30;99.90
4697;DHT22;2362;50.780;0.292;2022-10-16T07:31:20;13.40;99.90
4697;DHT22;2362;50.780;0.292;2022-10-16T07:33:47;13.40;99.90
4697;DHT22;2362;50.780;0.292;2022-10-16T07:36:17;13.40;99.90
4697;DHT22;2362;50.780;0.292;2022-10-16T07:38:43;13.30;99.90
4697;DHT22;2362;50.780;0.292;2022-10-16T07:41:12;13.30;99.90
4697;DHT22;2362;50.780;0.292;2022-10-16T07:43:38;13.40;99.90
4697;DHT22;2362;50.780;0.292;2022-10-16T07:46:04;13.40;99.90
4697;DHT22;2362;50.780;0.292;2022-10-16T07:48:32;13.30;99.90
4697;DHT22;2362;50.780;0.292;2022-10-16T07:50:59;13.30;99.90
4697;DHT22;2362;50.780;0.292;2022-10-16T07:53:26;13.20;99.90
4697;DHT22;2362;50.780;0.292;2022-10-16T07:55:52;13.20;99.90
4697;DHT22;2362;50.780;0.292;2022-10-16T07:58:18;13.20;99.90
4697;DHT22;2362;50.780;0.292;2022-10-16T08:00:43;13.30;99.90
4697;DHT22;2362;50.780;0.292;2022-10-16T08:03:09;13.40;99.90
4697;DHT22;2362;50.780;0.292;2022-10-16T08:05:35;13.40;99.90
4697;DHT22;2362;50.780;0.292;2022-10-16T08:08:01;13.50;99.90
4697;DHT22;2362;50.780;0.292;2022-10-16T08:10:28;13.50;99.90
4697;DHT22;2362;50.780;0.292;2022-10-16T08:12:54;13.50;99.90
4697;DHT22;2362;50.780;0.292;2022-10-16T08:15:20;13.50;99.90
4697;DHT22;2362;50.780;0.292;2022-10-16T08:18:01;13.50;99.90
4697;DHT22;2362;50.780;0.292;2022-10-16T08:20:27;13.50;99.90
4697;DHT22;2362;50.780;0.292;2022-10-16T08:22:53;13.50;99.90
4697;DHT22;2362;50.780;0.292;2022-10-16T08:25:21;13.50;99.90
4697;DHT22;2362;50.780;0.292;2022-10-16T08:27:47;13.60;99.90
4697;DHT22;2362;50.780;0.292;2022-10-16T08:30:13;13.60;99.90
4697;DHT22;2362;50.780;0.292;2022-10-16T08:32:39;13.70;99.90
4697;DHT22;2362;50.780;0.292;2022-10-16T08:35:06;13.90;99.90
4697;DHT22;2362;50.780;0.292;2022-10-16T08:37:33;14.00;99.90
4697;DHT22;2362;50.780;0.292;2022-10-16T08:39:58;14.30;99.90
4697;DHT22;2362;50.780;0.292;2022-10-16T08:42:59;14.40;99.90
4697;DHT22;2362;50.780;0.292;2022-10-16T08:45:44;14.60;99.90
4697;DHT22;2362;50.780;0.292;2022-10-16T08:48:45;14.80;99.90
4697;DHT22;2362;50.780;0.292;2022-10-16T08:51:23;15.00;99.90
4697;DHT22;2362;50.780;0.292;2022-10-16T08:53:59;15.20;99.90
4697;DHT22;2362;50.780;0.292;2022-10-16T08:56:26;15.30;99.90
4697;DHT22;2362;50.780;0.292;2022-10-16T08:58:53;15.30;99.90
4697;DHT22;2362;50.780;0.292;2022-10-16T09:01:22;15.50;99.90
4697;DHT22;2362;50.780;0.292;2022-10-16T09:11:43;15.60;99.90
4697;DHT22;2362;50.780;0.292;2022-10-16T09:14:18;15.70;99.90
4697;DHT22;2362;50.780;0.292;2022-10-16T09:16:51;15.80;99.90
4697;DHT22;2362;50.780;0.292;2022-10-16T09:19:44;15.90;99.90
4697;DHT22;2362;50.780;0.292;2022-10-16T09:22:14;16.00;99.90
4697;DHT22;2362;50.780;0.292;2022-10-16T09:24:41;16.10;99.90
4697;DHT22;2362;50.780;0.292;2022-10-16T09:27:14;15.90;99.90
4697;DHT22;2362;50.780;0.292;2022-10-16T09:29:40;15.90;99.90
4697;DHT22;2362;50.780;0.292;2022-10-16T09:32:19;15.90;99.90
4697;DHT22;2362;50.780;0.292;2022-10-16T09:34:49;16.00;99.90
4697;DHT22;2362;50.780;0.292;2022-10-16T09:37:22;16.10;99.90
4697;DHT22;2362;50.780;0.292;2022-10-16T09:39:50;16.30;99.90
4697;DHT22;2362;50.780;0.292;2022-10-16T09:42:25;16.50;99.90
4697;DHT22;2362;50.780;0.292;2022-10-16T09:44:53;16.70;99.90
4697;DHT22;2362;50.780;0.292;2022-10-16T09:47:24;16.80;99.90
4697;DHT22;2362;50.780;0.292;2022-10-16T09:49:55;16.80;99.90
4697;DHT22;2362;50.780;0.292;2022-10-16T09:52:23;16.80;99.90
4697;DHT22;2362;50.780;0.292;2022-10-16T09:55:15;16.80;99.90
4697;DHT22;2362;50.780;0.292;2022-10-16T09:58:13;16.80;99.90
4697;DHT22;2362;50.780;0.292;2022-10-16T10:00:41;16.70;99.90
4697;DHT22;2362;50.780;0.292;2022-10-16T10:03:11;16.50;99.90
4697;DHT22;2362;50.780;0.292;2022-10-16T10:05:39;16.40;99.90
4697;DHT22;2362;50.780;0.292;2022-10-16T10:08:06;16.30;99.90
4697;DHT22;2362;50.780;0.292;2022-10-16T10:10:42;16.30;99.90
4697;DHT22;2362;50.780;0.292;2022-10-16T10:13:35;16.20;99.90
4697;DHT22;2362;50.780;0.292;2022-10-16T10:16:00;16.00;99.90
4697;DHT22;2362;50.780;0.292;2022-10-16T10:18:26;16.00;99.90
4697;DHT22;2362;50.780;0.292;2022-10-16T10:21:02;15.90;99.90
4697;DHT22;2362;50.780;0.292;2022-10-16T10:23:29;15.90;99.90
4697;DHT22;2362;50.780;0.292;2022-10-16T10:26:16;15.70;99.90
4697;DHT22;2362;50.780;0.292;2022-10-16T10:29:19;15.40;99.90
4697;DHT22;2362;50.780;0.292;2022-10-16T10:35:11;15.40;99.90
4697;DHT22;2362;50.780;0.292;2022-10-16T10:38:03;15.50;99.90
4697;DHT22;2362;50.780;0.292;2022-10-16T10:40:44;15.60;99.90
4697;DHT22;2362;50.780;0.292;2022-10-16T10:46:00;15.50;99.90
4697;DHT22;2362;50.780;0.292;2022-10-16T10:54:26;15.70;99.90
4697;DHT22;2362;50.780;0.292;2022-10-16T10:57:02;15.70;99.90
4697;DHT22;2362;50.780;0.292;2022-10-16T11:02:58;15.90;99.90
4697;DHT22;2362;50.780;0.292;2022-10-16T11:05:40;16.00;99.90
4697;DHT22;2362;50.780;0.292;2022-10-16T11:08:45;16.20;99.90
4697;DHT22;2362;50.780;0.292;2022-10-16T11:11:37;16.30;99.90
4697;DHT22;2362;50.780;0.292;2022-10-16T11:17:10;16.50;99.90
4697;DHT22;2362;50.780;0.292;2022-10-16T11:19:51;16.50;99.90
4697;DHT22;2362;50.780;0.292;2022-10-16T11:25:04;16.60;99.90
4697;DHT22;2362;50.780;0.292;2022-10-16T11:30:26;16.60;99.90
4697;DHT22;2362;50.780;0.292;2022-10-16T11:41:47;16.90;99.90
4697;DHT22;2362;50.780;0.292;2022-10-16T11:46:26;16.90;99.90
4697;DHT22;2362;50.780;0.292;2022-10-16T11:49:06;16.80;99.90
4697;DHT22;2362;50.780;0.292;2022-10-16T11:51:42;16.80;99.90
4697;DHT22;2362;50.780;0.292;2022-10-16T11:56:38;16.80;99.90
4697;DHT22;2362;50.780;0.292;2022-10-16T11:59:20;16.90;99.90
4697;DHT22;2362;50.780;0.292;2022-10-16T12:01:53;16.90;99.90
4697;DHT22;2362;50.780;0.292;2022-10-16T12:04:30;16.90;99.90
4697;DHT22;2362;50.780;0.292;2022-10-16T12:07:09;16.90;99.90
4697;DHT22;2362;50.780;0.292;2022-10-16T12:09:39;16.90;99.90
4697;DHT22;2362;50.780;0.292;2022-10-16T12:12:23;16.90;99.90
4697;DHT22;2362;50.780;0.292;2022-10-16T12:15:00;17.00;99.90
4697;DHT22;2362;50.780;0.292;2022-10-16T12:17:37;17.00;99.90
4697;DHT22;2362;50.780;0.292;2022-10-16T12:22:47;17.20;99.90
4697;DHT22;2362;50.780;0.292;2022-10-16T12:28:17;17.10;99.90
4697;DHT22;2362;50.780;0.292;2022-10-16T12:30:53;17.10;99.90
4697;DHT22;2362;50.780;0.292;2022-10-16T12:33:26;17.10;99.90
4697;DHT22;2362;50.780;0.292;2022-10-16T12:35:55;17.00;99.90
4697;DHT22;2362;50.780;0.292;2022-10-16T12:38:48;17.00;99.90
4697;DHT22;2362;50.780;0.292;2022-10-16T12:41:25;17.00;99.90
4697;DHT22;2362;50.780;0.292;2022-10-16T12:43:52;17.00;99.90
4697;DHT22;2362;50.780;0.292;2022-10-16T12:48:44;16.90;99.90
4697;DHT22;2362;50.780;0.292;2022-10-16T12:51:11;16.90;99.90
4697;DHT22;2362;50.780;0.292;2022-10-16T12:53:37;16.80;99.90
4697;DHT22;2362;50.780;0.292;2022-10-16T13:04:38;16.70;99.90
4697;DHT22;2362;50.780;0.292;2022-10-16T13:10:12;16.70;99.90
4697;DHT22;2362;50.780;0.292;2022-10-16T13:18:18;16.50;99.90
4697;DHT22;2362;50.780;0.292;2022-10-16T13:21:01;16.50;99.90
4697;DHT22;2362;50.780;0.292;2022-10-16T13:26:10;16.50;99.90
4697;DHT22;2362;50.780;0.292;2022-10-16T13:28:38;16.40;99.90
4697;DHT22;2362;50.780;0.292;2022-10-16T13:31:04;16.40;99.90
4697;DHT22;2362;50.780;0.292;2022-10-16T13:33:41;16.40;99.90
4697;DHT22;2362;50.780;0.292;2022-10-16T13:36:25;16.40;99.90
4697;DHT22;2362;50.780;0.292;2022-10-16T13:39:03;16.30;99.90
4697;DHT22;2362;50.780;0.292;2022-10-16T13:41:32;16.30;99.90
4697;DHT22;2362;50.780;0.292;2022-10-16T13:43:57;16.30;99.90
4697;DHT22;2362;50.780;0.292;2022-10-16T13:46:24;16.30;99.90
4697;DHT22;2362;50.780;0.292;2022-10-16T13:49:03;16.20;99.90
4697;DHT22;2362;50.780;0.292;2022-10-16T13:51:30;16.20;99.90
4697;DHT22;2362;50.780;0.292;2022-10-16T13:53:57;16.20;99.90
4697;DHT22;2362;50.780;0.292;2022-10-16T13:56:27;16.20;99.90
4697;DHT22;2362;50.780;0.292;2022-10-16T14:01:42;16.20;99.90
4697;DHT22;2362;50.780;0.292;2022-10-16T14:04:11;16.10;99.90
4697;DHT22;2362;50.780;0.292;2022-10-16T14:06:45;16.10;99.90
4697;DHT22;2362;50.780;0.292;2022-10-16T14:09:20;16.10;99.90
4697;DHT22;2362;50.780;0.292;2022-10-16T14:11:53;16.10;99.90
4697;DHT22;2362;50.780;0.292;2022-10-16T14:14:19;16.10;99.90
4697;DHT22;2362;50.780;0.292;2022-10-16T14:16:46;16.00;99.90
4697;DHT22;2362;50.780;0.292;2022-10-16T14:19:20;16.00;99.90
4697;DHT22;2362;50.780;0.292;2022-10-16T14:21:48;15.90;99.90
4697;DHT22;2362;50.780;0.292;2022-10-16T14:26:50;15.90;99.90
4697;DHT22;2362;50.780;0.292;2022-10-16T14:29:19;16.00;99.90
4697;DHT22;2362;50.780;0.292;2022-10-16T14:32:22;15.90;99.90
4697;DHT22;2362;50.780;0.292;2022-10-16T14:34:53;15.90;99.90
4697;DHT22;2362;50.780;0.292;2022-10-16T14:37:24;15.90;99.90
4697;DHT22;2362;50.780;0.292;2022-10-16T14:39:52;15.90;99.90
4697;DHT22;2362;50.780;0.292;2022-10-16T14:42:20;15.90;99.90
4697;DHT22;2362;50.780;0.292;2022-10-16T14:44:50;15.80;99.90
4697;DHT22;2362;50.780;0.292;2022-10-16T14:47:20;15.80;99.90
4697;DHT22;2362;50.780;0.292;2022-10-16T14:49:49;15.90;99.90
4697;DHT22;2362;50.780;0.292;2022-10-16T14:52:15;15.80;99.90
4697;DHT22;2362;50.780;0.292;2022-10-16T14:54:41;15.90;99.90
4697;DHT22;2362;50.780;0.292;2022-10-16T14:57:17;15.80;99.90
4697;DHT22;2362;50.780;0.292;2022-10-16T14:59:43;15.80;99.90
4697;DHT22;2362;50.780;0.292;2022-10-16T15:02:30;15.80;99.90
4697;DHT22;2362;50.780;0.292;2022-10-16T15:04:57;15.80;99.90
4697;DHT22;2362;50.780;0.292;2022-10-16T15:07:24;15.80;99.90
4697;DHT22;2362;50.780;0.292;2022-10-16T15:09:50;15.90;99.90
4697;DHT22;2362;50.780;0.292;2022-10-16T15:12:16;15.90;99.90
4697;DHT22;2362;50.780;0.292;2022-10-16T15:14:42;15.90;99.90
4697;DHT22;2362;50.780;0.292;2022-10-16T15:17:11;15.90;99.90
4697;DHT22;2362;50.780;0.292;2022-10-16T15:19:38;15.90;99.90
4697;DHT22;2362;50.780;0.292;2022-10-16T15:22:04;15.90;99.90
4697;DHT22;2362;50.780;0.292;2022-10-16T15:24:29;15.80;99.90
4697;DHT22;2362;50.780;0.292;2022-10-16T15:26:55;15.70;99.90
4697;DHT22;2362;50.780;0.292;2022-10-16T15:29:21;15.60;99.90
4697;DHT22;2362;50.780;0.292;2022-10-16T15:31:48;15.60;99.90
4697;DHT22;2362;50.780;0.292;2022-10-16T15:34:15;15.60;99.90
4697;DHT22;2362;50.780;0.292;2022-10-16T15:36:41;15.60;99.90
4697;DHT22;2362;50.780;0.292;2022-10-16T15:39:26;15.60;99.90
4697;DHT22;2362;50.780;0.292;2022-10-16T15:41:52;15.60;99.90
4697;DHT22;2362;50.780;0.292;2022-10-16T15:44:18;15.60;99.90
4697;DHT22;2362;50.780;0.292;2022-10-16T15:46:44;15.60;99.90
4697;DHT22;2362;50.780;0.292;2022-10-16T15:49:11;15.60;99.90
4697;DHT22;2362;50.780;0.292;2022-10-16T15:51:39;15.60;99.90
4697;DHT22;2362;50.780;0.292;2022-10-16T15:54:06;15.60;99.90
4697;DHT22;2362;50.780;0.292;2022-10-16T15:56:33;15.60;99.90
4697;DHT22;2362;50.780;0.292;2022-10-16T15:59:00;15.60;99.90
4697;DHT22;2362;50.780;0.292;2022-10-16T16:01:27;15.60;99.90
4697;DHT22;2362;50.780;0.292;2022-10-16T16:03:55;15.60;99.90
4697;DHT22;2362;50.780;0.292;2022-10-16T16:06:22;15.60;99.90
4697;DHT22;2362;50.780;0.292;2022-10-16T16:08:49;15.60;99.90
4697;DHT22;2362;50.780;0.292;2022-10-16T16:11:17;15.60;99.90
4697;DHT22;2362;50.780;0.292;2022-10-16T16:13:43;15.60;99.90
4697;DHT22;2362;50.780;0.292;2022-10-16T16:16:12;15.60;99.90
4697;DHT22;2362;50.780;0.292;2022-10-16T16:18:39;15.60;99.90
4697;DHT22;2362;50.780;0.292;2022-10-16T16:21:05;15.60;99.90
4697;DHT22;2362;50.780;0.292;2022-10-16T16:23:31;15.60;99.90
4697;DHT22;2362;50.780;0.292;2022-10-16T16:26:10;15.60;99.90
4697;DHT22;2362;50.780;0.292;2022-10-16T16:28:36;15.60;99.90
4697;DHT22;2362;50.780;0.292;2022-10-16T16:31:04;15.50;99.90
4697;DHT22;2362;50.780;0.292;2022-10-16T16:33:30;15.50;99.90
4697;DHT22;2362;50.780;0.292;2022-10-16T16:36:01;15.50;99.90
4697;DHT22;2362;50.780;0.292;2022-10-16T16:38:28;15.50;99.90
4697;DHT22;2362;50.780;0.292;2022-10-16T16:40:54;15.50;99.90
4697;DHT22;2362;50.780;0.292;2022-10-16T16:43:27;15.50;99.90
4697;DHT22;2362;50.780;0.292;2022-10-16T16:45:53;15.50;99.90
4697;DHT22;2362;50.780;0.292;2022-10-16T16:48:22;15.50;99.90
4697;DHT22;2362;50.780;0.292;2022-10-16T16:50:48;15.50;99.90
4697;DHT22;2362;50.780;0.292;2022-10-16T16:53:14;15.50;99.90
4697;DHT22;2362;50.780;0.292;2022-10-16T16:55:39;15.50;99.90
4697;DHT22;2362;50.780;0.292;2022-10-16T16:58:05;15.60;99.90
4697;DHT22;2362;50.780;0.292;2022-10-16T17:00:31;15.50;99.90
4697;DHT22;2362;50.780;0.292;2022-10-16T17:02:57;15.50;99.90
4697;DHT22;2362;50.780;0.292;2022-10-16T17:05:23;15.50;99.90
4697;DHT22;2362;50.780;0.292;2022-10-16T17:07:49;15.50;99.90
4697;DHT22;2362;50.780;0.292;2022-10-16T17:10:14;15.50;99.90
4697;DHT22;2362;50.780;0.292;2022-10-16T17:12:42;15.40;99.90
4697;DHT22;2362;50.780;0.292;2022-10-16T17:15:08;15.50;99.90
4697;DHT22;2362;50.780;0.292;2022-10-16T17:17:35;15.50;99.90
4697;DHT22;2362;50.780;0.292;2022-10-16T17:20:00;15.50;99.90
4697;DHT22;2362;50.780;0.292;2022-10-16T17:22:26;15.50;99.90
4697;DHT22;2362;50.780;0.292;2022-10-16T17:24:52;15.60;99.90
4697;DHT22;2362;50.780;0.292;2022-10-16T17:27:20;15.60;99.90
4697;DHT22;2362;50.780;0.292;2022-10-16T17:29:50;15.60;99.90
4697;DHT22;2362;50.780;0.292;2022-10-16T17:32:17;15.60;99.90
4697;DHT22;2362;50.780;0.292;2022-10-16T17:34:45;15.60;99.90
4697;DHT22;2362;50.780;0.292;2022-10-16T17:37:10;15.70;99.90
4697;DHT22;2362;50.780;0.292;2022-10-16T17:39:36;15.70;99.90
4697;DHT22;2362;50.780;0.292;2022-10-16T17:42:02;15.70;99.90
4697;DHT22;2362;50.780;0.292;2022-10-16T17:44:27;15.70;99.90
4697;DHT22;2362;50.780;0.292;2022-10-16T17:46:53;15.70;99.90
4697;DHT22;2362;50.780;0.292;2022-10-16T17:49:20;15.70;99.90
4697;DHT22;2362;50.780;0.292;2022-10-16T17:51:49;15.70;99.90
4697;DHT22;2362;50.780;0.292;2022-10-16T17:54:15;15.70;99.90
4697;DHT22;2362;50.780;0.292;2022-10-16T17:56:41;15.70;99.90
4697;DHT22;2362;50.780;0.292;2022-10-16T17:59:08;15.70;99.90
4697;DHT22;2362;50.780;0.292;2022-10-16T18:01:36;15.70;99.90
4697;DHT22;2362;50.780;0.292;2022-10-16T18:04:13;15.70;99.90
4697;DHT22;2362;50.780;0.292;2022-10-16T18:06:40;15.80;99.90